createdAt,value
2023-01-04T00:00:45.583Z,1.00
2023-01-04T00:10:47.117Z,0.98
2023-01-04T00:20:48.600Z,0.80
2023-01-04T00:30:50.118Z,0.90
2023-01-04T00:40:51.669Z,1.00
2023-01-04T00:50:53.199Z,1.10
2023-01-04T01:00:54.777Z,0.80
2023-01-04T01:11:03.261Z,0.90
2023-01-04T01:21:21.481Z,0.77
2023-01-04T01:31:25.597Z,0.85
2023-01-04T01:41:30.260Z,0.88
2023-01-04T01:51:33.270Z,0.80
2023-01-04T02:01:34.927Z,0.68
2023-01-04T02:11:36.535Z,0.80
2023-01-04T02:21:55.277Z,0.63
2023-01-04T02:32:04.128Z,0.70
2023-01-04T02:42:19.128Z,0.60
2023-01-04T02:52:22.236Z,0.70
2023-01-04T03:03:01.150Z,0.40
2023-01-04T03:13:10.811Z,0.50
2023-01-04T03:23:32.832Z,0.47
2023-01-04T03:33:53.211Z,0.47
2023-01-04T03:44:21.780Z,0.50
2023-01-04T03:54:30.568Z,0.47
2023-01-04T04:04:50.791Z,0.50
2023-01-04T04:14:52.263Z,0.40
2023-01-04T04:24:53.734Z,0.35
2023-01-04T04:34:55.195Z,0.40
2023-01-04T04:44:56.681Z,0.30
2023-01-04T04:54:58.178Z,0.20
2023-01-04T05:04:59.678Z,0.30
2023-01-04T05:15:01.268Z,0.30
2023-01-04T05:25:02.865Z,0.40
2023-01-04T05:35:04.632Z,0.40
2023-01-04T05:45:06.824Z,0.30
2023-01-04T05:55:08.548Z,0.20
2023-01-04T06:05:11.374Z,0.22
2023-01-04T06:15:13.138Z,0.20
2023-01-04T06:25:14.840Z,0.20
2023-01-04T06:35:16.427Z,0.30
2023-01-04T06:45:17.941Z,0.28
2023-01-04T06:55:19.484Z,0.30
2023-01-04T07:05:21.022Z,0.20
2023-01-04T07:15:37.959Z,0.20
2023-01-04T07:25:42.001Z,0.20
2023-01-04T07:35:43.470Z,0.20
2023-01-04T07:45:46.171Z,0.20
2023-01-04T07:55:47.697Z,0.28
2023-01-04T08:05:49.285Z,0.20
2023-01-04T08:15:54.250Z,0.28
2023-01-04T08:25:55.756Z,0.20
2023-01-04T08:36:33.048Z,0.65
2023-01-04T08:46:34.573Z,0.60
2023-01-04T08:56:36.647Z,0.60
2023-01-04T09:06:39.534Z,0.85
2023-01-04T09:16:41.107Z,0.82
2023-01-04T09:26:42.652Z,0.52
2023-01-04T09:36:47.708Z,0.60
2023-01-04T09:47:15.055Z,0.60
2023-01-04T09:57:26.323Z,0.30
2023-01-04T10:07:30.802Z,0.40
2023-01-04T10:29:00.884Z,0.30
2023-01-04T10:39:05.598Z,0.20
2023-01-04T10:49:22.066Z,0.30
2023-01-04T10:59:23.556Z,0.30
2023-01-04T11:09:29.076Z,0.17
2023-01-04T11:19:30.609Z,0.40
2023-01-04T11:29:40.886Z,0.30
2023-01-04T11:39:42.421Z,0.22
2023-01-04T11:49:43.891Z,0.50
2023-01-04T11:59:45.727Z,0.40
2023-01-04T12:09:47.306Z,0.45
2023-01-04T12:19:50.740Z,0.70
2023-01-04T12:30:03.920Z,1.40
2023-01-04T12:40:43.264Z,0.40
2023-01-04T12:51:30.976Z,0.50
2023-01-04T13:01:34.901Z,0.50
2023-01-04T13:11:47.595Z,0.50
2023-01-04T13:21:49.939Z,0.40
2023-01-04T13:32:04.849Z,0.43
2023-01-04T13:42:12.775Z,0.53
2023-01-04T13:52:49.760Z,0.70
2023-01-04T14:02:46.002Z,0.93
2023-01-04T14:12:47.693Z,0.90
2023-01-04T14:22:49.177Z,1.00
2023-01-04T14:33:08.350Z,1.00
2023-01-04T14:43:44.101Z,1.08
2023-01-04T14:53:46.449Z,1.08
2023-01-04T15:03:48.065Z,0.98
2023-01-04T15:13:49.599Z,1.30
2023-01-04T15:23:51.088Z,1.08
2023-01-04T15:33:52.635Z,1.10
2023-01-04T15:43:54.109Z,1.10
2023-01-04T15:53:56.569Z,1.30
2023-01-04T16:03:58.034Z,1.23
2023-01-04T16:13:59.749Z,1.15
2023-01-04T16:24:07.294Z,1.58
2023-01-04T16:34:18.759Z,1.50
2023-01-04T16:44:21.202Z,1.35
2023-01-04T16:54:22.672Z,1.75
2023-01-04T17:04:24.594Z,1.55
2023-01-04T17:14:30.368Z,1.58
2023-01-04T17:24:31.866Z,1.63
2023-01-04T17:34:33.385Z,1.60
2023-01-04T17:44:34.831Z,1.90
2023-01-04T17:54:36.337Z,1.85
2023-01-04T18:04:37.853Z,1.67
2023-01-04T18:14:39.354Z,1.90
2023-01-04T18:24:40.854Z,1.50
2023-01-04T18:34:42.415Z,1.95
2023-01-04T18:44:48.287Z,2.13
2023-01-04T18:54:51.072Z,1.73
2023-01-04T19:04:52.593Z,1.90
2023-01-04T19:14:54.052Z,1.67
2023-01-04T19:24:55.521Z,2.22
2023-01-04T19:34:57.062Z,1.95
2023-01-04T19:44:58.557Z,1.42
2023-01-04T19:55:00.727Z,2.13
2023-01-04T20:05:02.323Z,1.80
2023-01-04T20:15:04.251Z,1.85
2023-01-04T20:25:06.297Z,2.08
2023-01-04T20:35:07.899Z,1.85
2023-01-04T20:45:09.761Z,2.10
2023-01-04T20:55:17.065Z,2.10
2023-01-04T21:05:18.975Z,1.88
2023-01-04T21:15:20.489Z,2.20
2023-01-04T21:25:22.035Z,1.83
2023-01-04T21:35:23.532Z,1.90
2023-01-04T21:45:25.533Z,1.90
2023-01-04T21:55:32.486Z,2.50
2023-01-04T22:05:35.897Z,2.13
2023-01-04T22:15:40.298Z,2.00
2023-01-04T22:25:41.901Z,2.17
2023-01-04T22:35:43.655Z,2.30
2023-01-04T22:45:45.993Z,2.10
2023-01-04T22:56:17.831Z,2.17
2023-01-04T23:06:10.925Z,2.10
2023-01-04T23:16:14.625Z,2.40
2023-01-04T23:26:19.120Z,2.55
2023-01-04T23:36:26.386Z,1.90
2023-01-04T23:46:27.896Z,1.77
2023-01-04T23:56:30.282Z,2.63
